createdAt,value
2018-08-22T00:00:38.048Z,0.00
2018-08-22T00:01:38.061Z,0.00
2018-08-22T00:02:37.949Z,0.00
2018-08-22T00:03:37.902Z,0.00
2018-08-22T00:04:37.857Z,0.00
2018-08-22T00:05:37.825Z,0.00
2018-08-22T00:06:37.789Z,0.00
2018-08-22T00:07:37.718Z,0.00
2018-08-22T00:08:37.672Z,0.00
2018-08-22T00:09:37.626Z,0.00
2018-08-22T00:10:37.578Z,0.00
2018-08-22T00:11:37.566Z,0.00
2018-08-22T00:12:37.489Z,0.00
2018-08-22T00:13:37.447Z,0.00
2018-08-22T00:14:37.393Z,0.00
2018-08-22T00:15:37.344Z,0.00
2018-08-22T00:16:37.343Z,0.00
2018-08-22T00:17:37.253Z,0.00
2018-08-22T00:18:37.210Z,0.00
2018-08-22T00:19:37.167Z,0.00
2018-08-22T00:20:37.115Z,0.00
2018-08-22T00:21:37.070Z,0.00
2018-08-22T00:22:37.121Z,0.00
2018-08-22T00:23:36.987Z,0.00
2018-08-22T00:24:36.935Z,0.00
2018-08-22T00:25:36.889Z,0.00
2018-08-22T00:26:36.845Z,0.00
2018-08-22T00:27:36.818Z,0.00
2018-08-22T00:28:36.752Z,0.00
2018-08-22T00:29:36.702Z,0.00
2018-08-22T00:30:36.656Z,0.00
2018-08-22T00:31:36.610Z,0.00
2018-08-22T00:32:36.600Z,0.00
2018-08-22T00:33:36.513Z,0.00
2018-08-22T00:34:36.469Z,0.00
2018-08-22T00:35:36.423Z,0.00
2018-08-22T00:36:36.387Z,0.00
2018-08-22T00:37:36.364Z,0.00
2018-08-22T00:38:36.292Z,0.00
2018-08-22T00:39:36.245Z,0.00
2018-08-22T00:40:36.196Z,0.00
2018-08-22T00:41:36.145Z,0.00
2018-08-22T00:42:36.126Z,0.00
2018-08-22T00:43:36.056Z,0.00
2018-08-22T00:44:36.004Z,0.00
2018-08-22T00:45:35.961Z,0.00
2018-08-22T00:46:35.914Z,0.00
2018-08-22T00:47:35.901Z,0.00
2018-08-22T00:48:35.823Z,0.00
2018-08-22T00:49:35.779Z,0.00
2018-08-22T00:50:35.736Z,0.00
2018-08-22T00:51:35.692Z,0.00
2018-08-22T00:52:35.664Z,0.00
2018-08-22T00:53:35.592Z,0.00
2018-08-22T00:54:35.548Z,0.00
2018-08-22T00:55:35.500Z,0.00
2018-08-22T00:56:35.450Z,0.00
2018-08-22T00:57:35.430Z,0.00
2018-08-22T00:58:35.356Z,0.00
2018-08-22T00:59:35.311Z,0.00
2018-08-22T01:00:35.270Z,0.00
2018-08-22T01:01:35.219Z,0.00
2018-08-22T01:02:35.239Z,0.00
2018-08-22T01:03:35.134Z,0.00
2018-08-22T01:04:35.083Z,0.00
2018-08-22T01:05:35.036Z,0.00
2018-08-22T01:06:34.996Z,0.00
2018-08-22T01:07:34.973Z,0.00
2018-08-22T01:08:34.903Z,0.00
2018-08-22T01:09:34.860Z,0.00
2018-08-22T01:10:34.809Z,0.00
2018-08-22T01:11:34.769Z,0.00
2018-08-22T01:12:34.739Z,0.00
2018-08-22T01:13:34.669Z,0.00
2018-08-22T01:14:34.624Z,0.00
2018-08-22T01:15:34.581Z,0.00
2018-08-22T01:16:34.532Z,0.00
2018-08-22T01:17:34.507Z,0.00
2018-08-22T01:18:34.442Z,0.00
2018-08-22T01:19:34.395Z,0.00
2018-08-22T01:20:34.351Z,0.00
2018-08-22T01:21:34.299Z,0.00
2018-08-22T01:22:34.280Z,0.00
2018-08-22T01:23:34.207Z,0.00
2018-08-22T01:24:34.160Z,0.00
2018-08-22T01:25:34.113Z,0.00
2018-08-22T01:26:34.071Z,0.00
2018-08-22T01:27:34.049Z,0.00
2018-08-22T01:28:33.982Z,0.00
2018-08-22T01:29:33.930Z,0.00
2018-08-22T01:30:33.899Z,0.00
2018-08-22T01:31:33.833Z,0.00
2018-08-22T01:32:33.819Z,0.00
2018-08-22T01:33:33.740Z,0.00
2018-08-22T01:34:33.701Z,0.00
2018-08-22T01:35:33.652Z,0.00
2018-08-22T01:36:33.608Z,0.00
2018-08-22T01:37:33.582Z,0.00
2018-08-22T01:38:33.514Z,0.00
2018-08-22T01:39:33.472Z,0.00
2018-08-22T01:40:33.428Z,0.00
2018-08-22T01:41:33.380Z,0.00
2018-08-22T01:42:33.367Z,0.00
2018-08-22T01:43:33.287Z,0.00
2018-08-22T01:44:33.242Z,0.00
2018-08-22T01:45:33.192Z,0.00
2018-08-22T01:46:33.146Z,0.00
2018-08-22T01:47:33.095Z,0.00
2018-08-22T01:48:33.084Z,0.00
2018-08-22T01:49:33.006Z,0.00
2018-08-22T01:50:32.959Z,0.00
2018-08-22T01:51:32.912Z,0.00
2018-08-22T01:52:32.865Z,0.00
2018-08-22T01:53:32.848Z,0.00
2018-08-22T01:54:32.779Z,0.00
2018-08-22T01:55:32.732Z,0.00
2018-08-22T01:56:32.681Z,0.00
2018-08-22T01:57:32.641Z,0.00
2018-08-22T01:58:32.635Z,0.00
2018-08-22T01:59:32.548Z,0.00
2018-08-22T02:00:32.510Z,0.00
2018-08-22T02:01:32.456Z,0.00
2018-08-22T02:02:32.413Z,0.00
2018-08-22T02:03:32.387Z,0.00
2018-08-22T02:04:32.322Z,0.00
2018-08-22T02:05:32.272Z,0.00
2018-08-22T02:06:32.220Z,0.00
2018-08-22T02:07:32.177Z,0.00
2018-08-22T02:08:32.159Z,0.00
2018-08-22T02:09:32.083Z,0.00
2018-08-22T02:10:32.040Z,0.00
2018-08-22T02:11:31.993Z,0.00
2018-08-22T02:12:31.948Z,0.00
2018-08-22T02:13:31.933Z,0.00
2018-08-22T02:14:31.858Z,0.00
2018-08-22T02:15:31.814Z,0.00
2018-08-22T02:16:31.770Z,0.00
2018-08-22T02:17:31.719Z,0.00
2018-08-22T02:18:31.698Z,0.00
2018-08-22T02:19:31.659Z,0.00
2018-08-22T02:20:31.583Z,0.00
2018-08-22T02:21:31.567Z,0.00
2018-08-22T02:22:31.492Z,0.00
2018-08-22T02:23:31.471Z,0.00
2018-08-22T02:24:31.398Z,0.00
2018-08-22T02:25:31.351Z,0.00
2018-08-22T02:26:31.309Z,0.00
2018-08-22T02:27:31.259Z,0.00
2018-08-22T02:28:31.237Z,0.00
2018-08-22T02:29:31.174Z,0.00
2018-08-22T02:30:31.123Z,0.00
2018-08-22T02:31:31.080Z,0.00
2018-08-22T02:32:31.031Z,0.00
2018-08-22T02:33:31.011Z,0.00
2018-08-22T02:34:30.941Z,0.00
2018-08-22T02:35:30.898Z,0.00
2018-08-22T02:36:30.845Z,0.00
2018-08-22T02:37:30.802Z,0.00
2018-08-22T02:38:30.780Z,0.00
2018-08-22T02:39:30.718Z,0.00
2018-08-22T02:40:30.679Z,0.00
2018-08-22T02:41:30.621Z,0.00
2018-08-22T02:42:30.579Z,0.00
2018-08-22T02:43:30.557Z,0.00
2018-08-22T02:44:30.491Z,0.00
2018-08-22T02:45:30.449Z,0.00
2018-08-22T02:46:30.391Z,0.00
2018-08-22T02:47:30.346Z,0.00
2018-08-22T02:48:30.319Z,0.00
2018-08-22T02:49:30.260Z,0.00
2018-08-22T02:50:30.216Z,0.00
2018-08-22T02:51:30.169Z,0.00
2018-08-22T02:52:30.117Z,0.00
2018-08-22T02:53:30.112Z,0.00
2018-08-22T02:54:30.026Z,0.00
2018-08-22T02:55:29.979Z,0.00
2018-08-22T02:56:29.933Z,0.00
2018-08-22T02:57:29.889Z,0.00
2018-08-22T02:58:29.844Z,0.00
2018-08-22T02:59:29.822Z,0.00
2018-08-22T03:00:29.748Z,0.00
2018-08-22T03:01:29.704Z,0.00
2018-08-22T03:02:29.659Z,0.00
2018-08-22T03:03:29.613Z,0.00
2018-08-22T03:04:29.594Z,0.00
2018-08-22T03:05:29.521Z,0.00
2018-08-22T03:06:29.481Z,0.00
2018-08-22T03:07:29.434Z,0.00
2018-08-22T03:08:29.392Z,0.00
2018-08-22T03:09:29.369Z,0.00
2018-08-22T03:10:29.293Z,0.00
2018-08-22T03:11:29.248Z,0.00
2018-08-22T03:12:29.202Z,0.00
2018-08-22T03:13:29.158Z,0.00
2018-08-22T03:14:29.140Z,0.00
2018-08-22T03:15:29.067Z,0.00
2018-08-22T03:16:29.028Z,0.00
2018-08-22T03:17:28.976Z,0.00
2018-08-22T03:18:28.929Z,0.00
2018-08-22T03:19:28.904Z,0.00
2018-08-22T03:20:28.842Z,0.00
2018-08-22T03:21:28.794Z,0.00
2018-08-22T03:22:28.749Z,0.00
2018-08-22T03:23:28.702Z,0.00
2018-08-22T03:24:28.685Z,0.00
2018-08-22T03:25:28.615Z,0.00
2018-08-22T03:26:28.561Z,0.00
2018-08-22T03:27:28.531Z,0.00
2018-08-22T03:28:28.484Z,0.00
2018-08-22T03:29:28.448Z,0.00
2018-08-22T03:30:28.384Z,0.00
2018-08-22T03:31:28.346Z,0.00
2018-08-22T03:32:28.292Z,0.00
2018-08-22T03:33:28.245Z,0.00
2018-08-22T03:34:28.223Z,0.00
2018-08-22T03:35:28.154Z,0.00
2018-08-22T03:36:28.118Z,0.00
2018-08-22T03:37:28.064Z,0.00
2018-08-22T03:38:28.025Z,0.00
2018-08-22T03:39:27.999Z,0.00
2018-08-22T03:40:27.927Z,0.00
2018-08-22T03:41:27.885Z,0.00
2018-08-22T03:42:27.841Z,0.00
2018-08-22T03:43:27.796Z,0.00
2018-08-22T03:44:27.781Z,0.00
2018-08-22T03:45:27.703Z,0.00
2018-08-22T03:46:27.656Z,0.00
2018-08-22T03:47:27.606Z,0.00
2018-08-22T03:48:27.562Z,0.00
2018-08-22T03:49:27.545Z,0.00
2018-08-22T03:50:27.479Z,0.00
2018-08-22T03:51:27.421Z,0.00
2018-08-22T03:52:27.387Z,0.00
2018-08-22T03:53:27.333Z,0.00
2018-08-22T03:54:27.315Z,4.00
2018-08-22T03:55:27.243Z,4.00
2018-08-22T03:56:27.200Z,0.00
2018-08-22T03:57:27.155Z,4.00
2018-08-22T03:58:27.116Z,4.00
2018-08-22T03:59:27.093Z,0.00
2018-08-22T04:00:27.017Z,4.00
2018-08-22T04:01:26.986Z,4.00
2018-08-22T04:02:26.926Z,8.00
2018-08-22T04:03:26.882Z,4.00
2018-08-22T04:04:26.859Z,8.00
2018-08-22T04:05:26.788Z,8.00
2018-08-22T04:06:26.742Z,8.00
2018-08-22T04:07:26.697Z,12.00
2018-08-22T04:08:26.657Z,12.00
2018-08-22T04:09:26.627Z,16.00
2018-08-22T04:10:26.561Z,20.00
2018-08-22T04:11:26.518Z,20.00
2018-08-22T04:12:26.472Z,24.00
2018-08-22T04:13:26.423Z,28.00
2018-08-22T04:14:26.402Z,28.00
2018-08-22T04:15:26.331Z,32.00
2018-08-22T04:16:26.291Z,36.00
2018-08-22T04:17:26.241Z,40.00
2018-08-22T04:18:26.197Z,44.00
2018-08-22T04:19:26.153Z,48.00
2018-08-22T04:20:26.131Z,52.00
2018-08-22T04:21:26.104Z,56.00
2018-08-22T04:22:26.018Z,60.00
2018-08-22T04:23:25.965Z,68.00
2018-08-22T04:24:25.921Z,72.00
2018-08-22T04:25:25.899Z,76.00
2018-08-22T04:26:25.826Z,84.00
2018-08-22T04:27:25.793Z,92.00
2018-08-22T04:28:25.737Z,96.00
2018-08-22T04:29:25.694Z,104.00
2018-08-22T04:30:25.671Z,112.00
2018-08-22T04:31:25.603Z,120.00
2018-08-22T04:32:25.561Z,128.00
2018-08-22T04:33:25.527Z,136.00
2018-08-22T04:34:25.467Z,144.00
2018-08-22T04:35:25.448Z,156.00
2018-08-22T04:36:25.382Z,168.00
2018-08-22T04:37:25.333Z,180.00
2018-08-22T04:38:25.284Z,188.00
2018-08-22T04:39:25.244Z,196.00
2018-08-22T04:40:25.238Z,204.00
2018-08-22T04:41:25.144Z,216.00
2018-08-22T04:42:25.107Z,228.00
2018-08-22T04:43:25.052Z,240.00
2018-08-22T04:44:25.006Z,256.00
2018-08-22T04:45:24.987Z,272.00
2018-08-22T04:46:24.921Z,300.00
2018-08-22T04:47:24.872Z,316.00
2018-08-22T04:48:24.830Z,328.00
2018-08-22T04:49:24.790Z,328.00
2018-08-22T04:50:24.761Z,332.00
2018-08-22T04:51:24.693Z,348.00
2018-08-22T04:52:24.641Z,364.00
2018-08-22T04:53:24.599Z,380.00
2018-08-22T04:54:24.559Z,404.00
2018-08-22T04:55:24.533Z,424.00
2018-08-22T04:56:24.462Z,448.00
2018-08-22T04:57:24.411Z,476.00
2018-08-22T04:58:24.374Z,496.00
2018-08-22T04:59:24.318Z,516.00
2018-08-22T05:00:24.300Z,528.00
2018-08-22T05:01:24.229Z,536.00
2018-08-22T05:02:24.187Z,548.00
2018-08-22T05:03:24.140Z,560.00
2018-08-22T05:04:24.095Z,572.00
2018-08-22T05:05:24.078Z,592.00
2018-08-22T05:06:24.013Z,616.00
2018-08-22T05:07:23.957Z,652.00
2018-08-22T05:08:23.917Z,688.00
2018-08-22T05:09:23.865Z,716.00
2018-08-22T05:10:23.853Z,716.00
2018-08-22T05:11:23.774Z,728.00
2018-08-22T05:12:23.731Z,736.00
2018-08-22T05:13:23.691Z,760.00
2018-08-22T05:14:23.650Z,772.00
2018-08-22T05:15:23.612Z,784.00
2018-08-22T05:16:23.547Z,792.00
2018-08-22T05:17:23.496Z,792.00
2018-08-22T05:18:23.453Z,792.00
2018-08-22T05:19:23.406Z,824.00
2018-08-22T05:20:23.403Z,860.00
2018-08-22T05:21:23.323Z,880.00
2018-08-22T05:22:23.270Z,900.00
2018-08-22T05:23:23.227Z,908.00
2018-08-22T05:24:23.180Z,928.00
2018-08-22T05:25:23.182Z,948.00
2018-08-22T05:26:23.090Z,932.00
2018-08-22T05:27:23.044Z,924.00
2018-08-22T05:28:22.996Z,944.00
2018-08-22T05:29:22.951Z,980.00
2018-08-22T05:30:22.901Z,944.00
2018-08-22T05:31:22.903Z,972.00
2018-08-22T05:32:22.811Z,1012.00
2018-08-22T05:33:22.768Z,1048.00
2018-08-22T05:34:22.724Z,1092.00
2018-08-22T05:35:22.677Z,1124.00
2018-08-22T05:36:22.653Z,1172.00
2018-08-22T05:37:22.582Z,1184.00
2018-08-22T05:38:22.543Z,1176.00
2018-08-22T05:39:22.494Z,1180.00
2018-08-22T05:40:22.453Z,1212.00
2018-08-22T05:41:22.430Z,1256.00
2018-08-22T05:42:22.358Z,1308.00
2018-08-22T05:43:22.315Z,1332.00
2018-08-22T05:44:22.262Z,1364.00
2018-08-22T05:45:22.228Z,1372.00
2018-08-22T05:46:22.209Z,1396.00
2018-08-22T05:47:22.151Z,1392.00
2018-08-22T05:48:22.083Z,1416.00
2018-08-22T05:49:22.042Z,1444.00
2018-08-22T05:50:21.995Z,1480.00
2018-08-22T05:51:21.974Z,1508.00
2018-08-22T05:52:21.910Z,1496.00
2018-08-22T05:53:21.852Z,1500.00
2018-08-22T05:54:21.816Z,1516.00
2018-08-22T05:55:21.766Z,1536.00
2018-08-22T05:56:21.747Z,1584.00
2018-08-22T05:57:21.672Z,1744.00
2018-08-22T05:58:21.636Z,1912.00
2018-08-22T05:59:21.587Z,2020.00
2018-08-22T06:00:21.550Z,2040.00
2018-08-22T06:01:21.520Z,2460.00
2018-08-22T06:02:21.452Z,2060.00
2018-08-22T06:03:21.450Z,2288.00
2018-08-22T06:04:21.361Z,2624.00
2018-08-22T06:05:21.318Z,2588.00
2018-08-22T06:06:21.317Z,2608.00
2018-08-22T06:07:21.222Z,2476.00
2018-08-22T06:08:21.185Z,3268.00
2018-08-22T06:09:21.127Z,3220.00
2018-08-22T06:10:21.101Z,2832.00
2018-08-22T06:11:21.077Z,2972.00
2018-08-22T06:12:20.997Z,3052.00
2018-08-22T06:13:20.965Z,3348.00
2018-08-22T06:14:20.905Z,3492.00
2018-08-22T06:15:20.860Z,3800.00
2018-08-22T06:16:20.852Z,3608.00
2018-08-22T06:17:20.774Z,3624.00
2018-08-22T06:18:20.735Z,3400.00
2018-08-22T06:19:20.684Z,3480.00
2018-08-22T06:20:20.638Z,3336.00
2018-08-22T06:21:20.624Z,3240.00
2018-08-22T06:22:20.545Z,3404.00
2018-08-22T06:23:20.500Z,3184.00
2018-08-22T06:24:20.457Z,3168.00
2018-08-22T06:25:20.418Z,3068.00
2018-08-22T06:26:20.393Z,2788.00
2018-08-22T06:27:20.321Z,3308.00
2018-08-22T06:28:20.278Z,3336.00
2018-08-22T06:29:20.238Z,3416.00
2018-08-22T06:30:20.190Z,3484.00
2018-08-22T06:31:20.175Z,3488.00
2018-08-22T06:32:20.101Z,3444.00
2018-08-22T06:33:20.067Z,3292.00
2018-08-22T06:34:20.013Z,3408.00
2018-08-22T06:35:19.974Z,3460.00
2018-08-22T06:36:19.958Z,3560.00
2018-08-22T06:37:19.876Z,3536.00
2018-08-22T06:38:19.838Z,3516.00
2018-08-22T06:39:19.790Z,3468.00
2018-08-22T06:40:19.740Z,3440.00
2018-08-22T06:41:19.751Z,3388.00
2018-08-22T06:42:19.655Z,3548.00
2018-08-22T06:43:19.610Z,3620.00
2018-08-22T06:44:19.632Z,3716.00
2018-08-22T06:45:19.523Z,3672.00
2018-08-22T06:46:19.482Z,3596.00
2018-08-22T06:47:19.463Z,3668.00
2018-08-22T06:48:19.393Z,3704.00
2018-08-22T06:49:19.346Z,3692.00
2018-08-22T06:50:19.438Z,3772.00
2018-08-22T06:51:19.258Z,3888.00
2018-08-22T06:52:19.240Z,3836.00
2018-08-22T06:53:19.172Z,3760.00
2018-08-22T06:54:19.128Z,3880.00
2018-08-22T06:55:19.088Z,3940.00
2018-08-22T06:56:19.047Z,4012.00
2018-08-22T06:57:19.029Z,4016.00
2018-08-22T06:58:18.957Z,3952.00
2018-08-22T06:59:18.911Z,3988.00
2018-08-22T07:00:18.877Z,3952.00
2018-08-22T07:01:18.821Z,3944.00
2018-08-22T07:02:18.814Z,3880.00
2018-08-22T07:03:18.740Z,3896.00
2018-08-22T07:04:18.693Z,3924.00
2018-08-22T07:05:18.649Z,4044.00
2018-08-22T07:06:18.605Z,4104.00
2018-08-22T07:07:18.591Z,4040.00
2018-08-22T07:08:18.524Z,3924.00
2018-08-22T07:09:18.487Z,3948.00
2018-08-22T07:10:18.431Z,3948.00
2018-08-22T07:11:18.391Z,3932.00
2018-08-22T07:12:18.369Z,3940.00
2018-08-22T07:13:18.309Z,3932.00
2018-08-22T07:14:18.269Z,3944.00
2018-08-22T07:15:18.227Z,3928.00
2018-08-22T07:16:18.175Z,3952.00
2018-08-22T07:17:18.156Z,3920.00
2018-08-22T07:18:18.091Z,3872.00
2018-08-22T07:19:18.052Z,3868.00
2018-08-22T07:20:18.009Z,3744.00
2018-08-22T07:21:17.968Z,3520.00
2018-08-22T07:22:17.947Z,3800.00
2018-08-22T07:23:17.876Z,3820.00
2018-08-22T07:24:17.833Z,3868.00
2018-08-22T07:25:17.785Z,3796.00
2018-08-22T07:26:17.743Z,3864.00
2018-08-22T07:27:17.723Z,3800.00
2018-08-22T07:28:17.659Z,3856.00
2018-08-22T07:29:17.618Z,3792.00
2018-08-22T07:30:17.570Z,3800.00
2018-08-22T07:31:17.533Z,3804.00
2018-08-22T07:32:17.511Z,3796.00
2018-08-22T07:33:17.442Z,3768.00
2018-08-22T07:34:17.405Z,3748.00
2018-08-22T07:35:17.359Z,3764.00
2018-08-22T07:36:17.319Z,3764.00
2018-08-22T07:37:17.331Z,3736.00
2018-08-22T07:38:17.231Z,3752.00
2018-08-22T07:39:17.207Z,3488.00
2018-08-22T07:40:17.145Z,3664.00
2018-08-22T07:41:17.103Z,3696.00
2018-08-22T07:42:17.084Z,3656.00
2018-08-22T07:43:17.015Z,3616.00
2018-08-22T07:44:16.972Z,3596.00
2018-08-22T07:45:16.929Z,3580.00
2018-08-22T07:46:16.890Z,3560.00
2018-08-22T07:47:16.970Z,3532.00
2018-08-22T07:48:16.806Z,3592.00
2018-08-22T07:49:16.772Z,3612.00
2018-08-22T07:50:16.795Z,3632.00
2018-08-22T07:51:16.675Z,3500.00
2018-08-22T07:52:16.671Z,3480.00
2018-08-22T07:53:16.612Z,3428.00
2018-08-22T07:54:16.548Z,3472.00
2018-08-22T07:55:16.511Z,3420.00
2018-08-22T07:56:16.455Z,3416.00
2018-08-22T07:57:16.445Z,3376.00
2018-08-22T07:58:16.368Z,3344.00
2018-08-22T07:59:16.367Z,3324.00
2018-08-22T08:00:16.329Z,3288.00
2018-08-22T08:01:16.251Z,3264.00
2018-08-22T08:02:16.239Z,3212.00
2018-08-22T08:03:16.161Z,3172.00
2018-08-22T08:04:16.122Z,3160.00
2018-08-22T08:05:16.075Z,3100.00
2018-08-22T08:06:16.037Z,3080.00
2018-08-22T08:07:16.038Z,3052.00
2018-08-22T08:08:15.951Z,3072.00
2018-08-22T08:09:15.908Z,3012.00
2018-08-22T08:10:15.907Z,3000.00
2018-08-22T08:11:15.837Z,2968.00
2018-08-22T08:12:15.784Z,2936.00
2018-08-22T08:13:15.785Z,2912.00
2018-08-22T08:14:15.694Z,2884.00
2018-08-22T08:15:15.650Z,2868.00
2018-08-22T08:16:15.609Z,2840.00
2018-08-22T08:17:15.647Z,2816.00
2018-08-22T08:18:15.578Z,2804.00
2018-08-22T08:19:15.489Z,2820.00
2018-08-22T08:20:15.444Z,2860.00
2018-08-22T08:21:15.401Z,2848.00
2018-08-22T08:22:15.355Z,2852.00
2018-08-22T08:23:15.341Z,2840.00
2018-08-22T08:24:15.276Z,2924.00
2018-08-22T08:25:15.238Z,2840.00
2018-08-22T08:26:15.211Z,2848.00
2018-08-22T08:27:15.152Z,2868.00
2018-08-22T08:28:15.132Z,2888.00
2018-08-22T08:29:15.064Z,2868.00
2018-08-22T08:30:15.021Z,2900.00
2018-08-22T08:31:14.981Z,2888.00
2018-08-22T08:32:14.940Z,2888.00
2018-08-22T08:33:14.922Z,2916.00
2018-08-22T08:34:14.854Z,2972.00
2018-08-22T08:35:14.814Z,3124.00
2018-08-22T08:36:14.850Z,3192.00
2018-08-22T08:37:14.726Z,3280.00
2018-08-22T08:38:14.722Z,3260.00
2018-08-22T08:39:14.641Z,3212.00
2018-08-22T08:40:14.610Z,3176.00
2018-08-22T08:41:14.564Z,3220.00
2018-08-22T08:42:14.526Z,3064.00
2018-08-22T08:43:14.516Z,2992.00
2018-08-22T08:44:14.438Z,2948.00
2018-08-22T08:45:14.393Z,2908.00
2018-08-22T08:46:14.355Z,2884.00
2018-08-22T08:47:14.312Z,2868.00
2018-08-22T08:48:14.296Z,2884.00
2018-08-22T08:49:14.229Z,2888.00
2018-08-22T08:50:14.184Z,2908.00
2018-08-22T08:51:14.148Z,2932.00
2018-08-22T08:52:14.108Z,2928.00
2018-08-22T08:53:14.090Z,2940.00
2018-08-22T08:54:14.023Z,2952.00
2018-08-22T08:55:13.997Z,2952.00
2018-08-22T08:56:13.941Z,2952.00
2018-08-22T08:57:13.906Z,2960.00
2018-08-22T08:58:13.885Z,2976.00
2018-08-22T08:59:13.834Z,3004.00
2018-08-22T09:00:13.771Z,3024.00
2018-08-22T09:01:13.727Z,3024.00
2018-08-22T09:02:13.707Z,3024.00
2018-08-22T09:03:13.668Z,3020.00
2018-08-22T09:04:13.606Z,3016.00
2018-08-22T09:05:13.570Z,3028.00
2018-08-22T09:06:13.525Z,3020.00
2018-08-22T09:07:13.479Z,3036.00
2018-08-22T09:08:13.466Z,2800.00
2018-08-22T09:09:13.394Z,3088.00
2018-08-22T09:10:13.395Z,3116.00
2018-08-22T09:11:13.312Z,2876.00
2018-08-22T09:12:13.289Z,3064.00
2018-08-22T09:13:13.251Z,3224.00
2018-08-22T09:14:13.194Z,3208.00
2018-08-22T09:15:13.145Z,3160.00
2018-08-22T09:16:13.110Z,3124.00
2018-08-22T09:17:13.112Z,3148.00
2018-08-22T09:18:13.043Z,3124.00
2018-08-22T09:19:12.978Z,3076.00
2018-08-22T09:20:12.937Z,3092.00
2018-08-22T09:21:12.964Z,3104.00
2018-08-22T09:22:12.885Z,3100.00
2018-08-22T09:23:12.896Z,3060.00
2018-08-22T09:24:12.808Z,3072.00
2018-08-22T09:25:12.729Z,3124.00
2018-08-22T09:26:12.686Z,3044.00
2018-08-22T09:27:12.650Z,3136.00
2018-08-22T09:28:12.694Z,3044.00
2018-08-22T09:29:12.608Z,3052.00
2018-08-22T09:30:12.524Z,3032.00
2018-08-22T09:31:12.483Z,3012.00
2018-08-22T09:32:12.440Z,3016.00
2018-08-22T09:33:12.396Z,3012.00
2018-08-22T09:34:12.381Z,3028.00
2018-08-22T09:35:12.311Z,2996.00
2018-08-22T09:36:12.272Z,2944.00
2018-08-22T09:37:12.232Z,2944.00
2018-08-22T09:38:12.204Z,2944.00
2018-08-22T09:39:12.174Z,2900.00
2018-08-22T09:40:12.198Z,2892.00
2018-08-22T09:41:12.064Z,2904.00
2018-08-22T09:42:12.031Z,2976.00
2018-08-22T09:43:12.009Z,3012.00
2018-08-22T09:44:11.972Z,3028.00
2018-08-22T09:45:11.902Z,3032.00
2018-08-22T09:46:11.864Z,3020.00
2018-08-22T09:47:11.836Z,3016.00
2018-08-22T09:48:11.802Z,3028.00
2018-08-22T09:49:11.770Z,3032.00
2018-08-22T09:50:11.710Z,2984.00
2018-08-22T09:51:11.660Z,2992.00
2018-08-22T09:52:11.615Z,2980.00
2018-08-22T09:53:11.582Z,2976.00
2018-08-22T09:54:11.562Z,2984.00
2018-08-22T09:55:11.496Z,2992.00
2018-08-22T09:56:11.458Z,2988.00
2018-08-22T09:57:11.417Z,3000.00
2018-08-22T09:58:11.410Z,2924.00
2018-08-22T09:59:11.358Z,3012.00
2018-08-22T10:00:11.345Z,3028.00
2018-08-22T10:01:11.253Z,3036.00
2018-08-22T10:02:11.225Z,3040.00
2018-08-22T10:03:11.166Z,3032.00
2018-08-22T10:04:11.154Z,3028.00
2018-08-22T10:05:11.090Z,3056.00
2018-08-22T10:06:11.048Z,3008.00
2018-08-22T10:07:11.056Z,3040.00
2018-08-22T10:08:10.968Z,3192.00
2018-08-22T10:09:10.957Z,2996.00
2018-08-22T10:10:10.883Z,3004.00
2018-08-22T10:11:10.848Z,3040.00
2018-08-22T10:12:10.820Z,2992.00
2018-08-22T10:13:10.766Z,3012.00
2018-08-22T10:14:10.750Z,3008.00
2018-08-22T10:15:10.685Z,3000.00
2018-08-22T10:16:10.641Z,3008.00
2018-08-22T10:17:10.637Z,2964.00
2018-08-22T10:18:10.582Z,2976.00
2018-08-22T10:19:10.631Z,2952.00
2018-08-22T10:20:10.487Z,2972.00
2018-08-22T10:21:10.443Z,2980.00
2018-08-22T10:22:10.400Z,2876.00
2018-08-22T10:23:10.357Z,2940.00
2018-08-22T10:24:10.333Z,2972.00
2018-08-22T10:25:10.301Z,2884.00
2018-08-22T10:26:10.239Z,2916.00
2018-08-22T10:27:10.211Z,2952.00
2018-08-22T10:28:10.165Z,3056.00
2018-08-22T10:29:10.118Z,3180.00
2018-08-22T10:30:10.097Z,3280.00
2018-08-22T10:31:10.032Z,3308.00
2018-08-22T10:32:09.995Z,3340.00
2018-08-22T10:33:09.953Z,3508.00
2018-08-22T10:34:09.915Z,3588.00
2018-08-22T10:35:09.917Z,3692.00
2018-08-22T10:36:09.838Z,3720.00
2018-08-22T10:37:09.796Z,3768.00
2018-08-22T10:38:09.755Z,3848.00
2018-08-22T10:39:09.714Z,3856.00
2018-08-22T10:40:09.718Z,3784.00
2018-08-22T10:41:09.631Z,3796.00
2018-08-22T10:42:09.593Z,3868.00
2018-08-22T10:43:09.551Z,3948.00
2018-08-22T10:44:09.517Z,3988.00
2018-08-22T10:45:09.498Z,4164.00
2018-08-22T10:46:09.455Z,4232.00
2018-08-22T10:47:09.394Z,4032.00
2018-08-22T10:48:09.355Z,4000.00
2018-08-22T10:49:09.305Z,3960.00
2018-08-22T10:50:09.290Z,3860.00
2018-08-22T10:51:09.241Z,3792.00
2018-08-22T10:52:09.188Z,3828.00
2018-08-22T10:53:09.149Z,3812.00
2018-08-22T10:54:09.128Z,3892.00
2018-08-22T10:55:09.097Z,3784.00
2018-08-22T10:56:09.031Z,4348.00
2018-08-22T10:57:08.991Z,3956.00
2018-08-22T10:58:08.947Z,4316.00
2018-08-22T10:59:08.909Z,4380.00
2018-08-22T11:00:08.898Z,4576.00
2018-08-22T11:01:08.828Z,4828.00
2018-08-22T11:02:08.792Z,4884.00
2018-08-22T11:03:08.769Z,4712.00
2018-08-22T11:04:08.711Z,4692.00
2018-08-22T11:05:08.688Z,4628.00
2018-08-22T11:06:08.628Z,4724.00
2018-08-22T11:07:08.602Z,4732.00
2018-08-22T11:08:08.550Z,4744.00
2018-08-22T11:09:08.527Z,4568.00
2018-08-22T11:10:08.488Z,4436.00
2018-08-22T11:11:08.447Z,4256.00
2018-08-22T11:12:08.393Z,4188.00
2018-08-22T11:13:08.346Z,4140.00
2018-08-22T11:14:08.315Z,4104.00
2018-08-22T11:15:08.289Z,4160.00
2018-08-22T11:16:08.269Z,4008.00
2018-08-22T11:17:08.192Z,3892.00
2018-08-22T11:18:08.238Z,3800.00
2018-08-22T11:19:08.111Z,3784.00
2018-08-22T11:20:08.101Z,3776.00
2018-08-22T11:21:08.025Z,3704.00
2018-08-22T11:22:07.986Z,3588.00
2018-08-22T11:23:07.950Z,3516.00
2018-08-22T11:24:07.911Z,3432.00
2018-08-22T11:25:07.904Z,3372.00
2018-08-22T11:26:07.888Z,3336.00
2018-08-22T11:27:07.862Z,3280.00
2018-08-22T11:28:07.746Z,3220.00
2018-08-22T11:29:07.703Z,3160.00
2018-08-22T11:30:07.668Z,3096.00
2018-08-22T11:31:07.772Z,3040.00
2018-08-22T11:32:07.584Z,3048.00
2018-08-22T11:33:07.552Z,3040.00
2018-08-22T11:34:07.506Z,3064.00
2018-08-22T11:35:07.467Z,3104.00
2018-08-22T11:36:07.453Z,3400.00
2018-08-22T11:37:07.389Z,3768.00
2018-08-22T11:38:07.346Z,3624.00
2018-08-22T11:39:07.318Z,3320.00
2018-08-22T11:40:07.267Z,3316.00
2018-08-22T11:41:07.251Z,3264.00
2018-08-22T11:42:07.183Z,3128.00
2018-08-22T11:43:07.143Z,3280.00
2018-08-22T11:44:07.105Z,2944.00
2018-08-22T11:45:07.060Z,3276.00
2018-08-22T11:46:07.044Z,3500.00
2018-08-22T11:47:06.980Z,3580.00
2018-08-22T11:48:06.943Z,3592.00
2018-08-22T11:49:06.902Z,3652.00
2018-08-22T11:50:06.864Z,3732.00
2018-08-22T11:51:06.847Z,3848.00
2018-08-22T11:52:06.780Z,3756.00
2018-08-22T11:53:06.740Z,3740.00
2018-08-22T11:54:06.703Z,3728.00
2018-08-22T11:55:06.663Z,3824.00
2018-08-22T11:56:06.677Z,4296.00
2018-08-22T11:57:06.579Z,4872.00
2018-08-22T11:58:06.535Z,4956.00
2018-08-22T11:59:06.500Z,4628.00
2018-08-22T12:00:06.459Z,4032.00
2018-08-22T12:01:06.438Z,3992.00
2018-08-22T12:02:06.388Z,3748.00
2018-08-22T12:03:06.337Z,3340.00
2018-08-22T12:04:06.298Z,3364.00
2018-08-22T12:05:06.257Z,3460.00
2018-08-22T12:06:06.237Z,3440.00
2018-08-22T12:07:06.182Z,3500.00
2018-08-22T12:08:06.132Z,3600.00
2018-08-22T12:09:06.094Z,3664.00
2018-08-22T12:10:06.063Z,3808.00
2018-08-22T12:11:06.038Z,4356.00
2018-08-22T12:12:05.975Z,4600.00
2018-08-22T12:13:05.936Z,4848.00
2018-08-22T12:14:05.897Z,5152.00
2018-08-22T12:15:05.854Z,5000.00
2018-08-22T12:16:05.876Z,4408.00
2018-08-22T12:17:05.772Z,4544.00
2018-08-22T12:18:05.733Z,4428.00
2018-08-22T12:19:05.694Z,4080.00
2018-08-22T12:20:05.657Z,3824.00
2018-08-22T12:21:05.639Z,3880.00
2018-08-22T12:22:05.577Z,3512.00
2018-08-22T12:23:05.604Z,3272.00
2018-08-22T12:24:05.499Z,3664.00
2018-08-22T12:25:05.454Z,3696.00
2018-08-22T12:26:05.413Z,3140.00
2018-08-22T12:27:05.422Z,2816.00
2018-08-22T12:28:05.330Z,2692.00
2018-08-22T12:29:05.297Z,3040.00
2018-08-22T12:30:05.255Z,3012.00
2018-08-22T12:31:05.285Z,2816.00